Time;durP1;ratioP1;P1;durP2;ratioP2;P2;SDS_P1;SDS_P2;PMS_P1;PMS_P2;Temp;Humidity;BMP_temperature;BMP_pressure;BME280_temperature;BME280_humidity;BME280_pressure;Samples;Min_cycle;Max_cycle;Signal;HPM_P1;HPM_P2
2022/03/04 00:01:22;;;;;;;25.88;12.10;;;-0.10;99.90;;;;;;5070212;28;20040;-37
2022/03/04 00:03:48;;;;;;;24.10;12.73;;;-0.10;99.90;;;;;;5066084;28;20038;-37
2022/03/04 00:06:14;;;;;;;29.08;13.00;;;-0.10;99.90;;;;;;5076776;28;20040;-37
2022/03/04 00:08:41;;;;;;;25.00;13.15;;;-0.20;99.90;;;;;;5071805;28;20039;-37
2022/03/04 00:11:08;;;;;;;25.83;13.75;;;-0.20;99.90;;;;;;5086851;28;20040;-37
2022/03/04 00:13:33;;;;;;;22.85;11.82;;;-0.20;99.90;;;;;;5053682;28;20040;-37
2022/03/04 00:15:59;;;;;;;23.67;12.00;;;-0.20;99.90;;;;;;5069318;28;20047;-38
2022/03/04 00:18:26;;;;;;;28.65;12.80;;;-0.20;99.90;;;;;;5034177;28;20124;-37
2022/03/04 00:20:52;;;;;;;22.55;11.77;;;-0.10;99.90;;;;;;5064222;28;20442;-37
2022/03/04 00:23:19;;;;;;;28.50;12.70;;;-0.20;99.90;;;;;;5069460;28;20040;-37
2022/03/04 00:25:46;;;;;;;25.40;13.25;;;-0.20;99.90;;;;;;5086063;28;20064;-37
2022/03/04 00:28:12;;;;;;;24.13;11.98;;;-0.30;99.90;;;;;;5087735;28;20610;-37
2022/03/04 00:30:39;;;;;;;23.85;12.07;;;-0.30;99.90;;;;;;5081757;28;20482;-37
2022/03/04 00:33:05;;;;;;;26.10;12.93;;;-0.30;99.90;;;;;;5088448;28;20116;-37
2022/03/04 00:35:31;;;;;;;28.40;13.45;;;-0.30;99.90;;;;;;5086049;28;20075;-37
2022/03/04 00:37:57;;;;;;;27.35;12.27;;;-0.30;99.90;;;;;;5069758;28;20032;-37
2022/03/04 00:40:23;;;;;;;25.77;13.93;;;-0.30;99.90;;;;;;5077537;28;20041;-37
2022/03/04 00:42:49;;;;;;;26.10;13.52;;;-0.30;99.90;;;;;;5066094;28;20413;-37
2022/03/04 00:45:16;;;;;;;29.45;14.25;;;-0.20;99.90;;;;;;5066275;28;20064;-37
2022/03/04 00:47:42;;;;;;;29.80;15.23;;;-0.30;99.90;;;;;;5065920;28;20119;-37
2022/03/04 00:50:10;;;;;;;30.75;14.80;;;-0.20;99.90;;;;;;5049385;28;20074;-37
2022/03/04 00:52:36;;;;;;;27.90;14.38;;;-0.20;99.90;;;;;;5063890;28;20127;-37
2022/03/04 00:55:03;;;;;;;30.63;15.68;;;-0.20;99.90;;;;;;5038834;28;20044;-37
2022/03/04 00:57:29;;;;;;;34.45;17.70;;;-0.20;99.90;;;;;;5079936;28;20032;-37
2022/03/04 00:59:55;;;;;;;31.23;17.17;;;-0.20;99.90;;;;;;5062726;28;20174;-37
2022/03/04 01:02:21;;;;;;;35.63;17.88;;;-0.10;99.90;;;;;;5064542;28;20428;-37
2022/03/04 01:04:47;;;;;;;31.52;18.75;;;-0.10;99.90;;;;;;5062937;28;20040;-37
2022/03/04 01:07:13;;;;;;;34.80;19.48;;;-0.10;99.90;;;;;;5048292;28;20094;-37
2022/03/04 01:09:39;;;;;;;32.70;16.65;;;-0.10;99.90;;;;;;5063532;28;20082;-37
2022/03/04 01:12:06;;;;;;;32.97;20.38;;;-0.10;99.90;;;;;;5047409;28;20056;-37
2022/03/04 01:14:33;;;;;;;37.95;21.52;;;0.00;99.90;;;;;;5045574;28;20044;-37
2022/03/04 01:16:59;;;;;;;31.30;16.60;;;0.00;99.90;;;;;;5031273;28;20509;-37
2022/03/04 01:19:25;;;;;;;31.92;17.48;;;0.00;99.90;;;;;;5031923;28;20101;-37
2022/03/04 01:21:51;;;;;;;30.92;15.25;;;0.00;99.90;;;;;;5069013;28;20466;-37
2022/03/04 01:24:18;;;;;;;26.77;13.60;;;0.00;99.90;;;;;;5044683;28;20041;-38
2022/03/04 01:26:43;;;;;;;29.40;15.10;;;0.00;99.90;;;;;;5048469;28;20249;-37
2022/03/04 01:29:09;;;;;;;27.65;15.10;;;0.00;99.90;;;;;;5078376;28;20470;-37
2022/03/04 01:31:35;;;;;;;28.27;15.48;;;0.00;99.90;;;;;;5048096;28;20059;-37
2022/03/04 01:34:01;;;;;;;34.90;18.38;;;0.00;99.90;;;;;;5077105;28;20044;-37
2022/03/04 01:36:32;;;;;;;35.70;17.50;;;0.00;99.90;;;;;;5031923;28;20037;-37
2022/03/04 01:38:58;;;;;;;34.75;17.80;;;0.00;99.90;;;;;;5047497;28;20793;-37
2022/03/04 01:41:24;;;;;;;32.95;19.52;;;0.00;99.90;;;;;;5029457;28;20092;-37
2022/03/04 01:43:51;;;;;;;34.38;17.05;;;-0.10;99.90;;;;;;5062627;28;20113;-37
2022/03/04 01:46:18;;;;;;;30.77;17.33;;;-0.10;99.90;;;;;;5064176;28;20470;-37
2022/03/04 01:48:46;;;;;;;28.45;16.52;;;-0.20;99.90;;;;;;5048426;28;20040;-37
2022/03/04 01:51:13;;;;;;;28.90;16.70;;;0.50;99.90;;;;;;5061294;28;20029;-37
2022/03/04 01:53:39;;;;;;;33.80;17.90;;;-0.20;99.90;;;;;;5056825;28;20537;-37
2022/03/04 01:56:06;;;;;;;37.95;21.63;;;-0.20;99.90;;;;;;5063510;28;20053;-37
2022/03/04 01:58:32;;;;;;;39.33;19.60;;;-0.20;99.90;;;;;;5047014;28;20113;-37
2022/03/04 02:00:59;;;;;;;31.48;16.90;;;-0.20;99.90;;;;;;5048254;28;20055;-37
2022/03/04 02:03:25;;;;;;;29.02;14.10;;;-0.20;99.90;;;;;;5046932;28;20451;-37
2022/03/04 02:05:51;;;;;;;26.77;14.07;;;-0.20;99.90;;;;;;5046584;28;20524;-37
2022/03/04 02:08:17;;;;;;;27.02;13.68;;;-0.30;99.90;;;;;;5066931;28;20043;-37
2022/03/04 02:10:43;;;;;;;27.17;13.82;;;-0.30;99.90;;;;;;5044827;28;20033;-37
2022/03/04 02:13:09;;;;;;;28.95;13.43;;;-0.40;99.90;;;;;;5031846;28;20135;-37
2022/03/04 02:15:35;;;;;;;27.60;12.95;;;-0.40;99.90;;;;;;5063742;28;20037;-37
2022/03/04 02:18:13;;;;;;;29.20;13.52;;;-0.50;99.90;;;;;;5047937;28;20041;-37
2022/03/04 02:20:41;;;;;;;;;;;-0.50;99.90;;;;;;5067692;28;20067;-37
2022/03/04 02:23:08;;;;;;;32.42;14.27;;;-0.50;99.90;;;;;;5045923;28;19923;-37
2022/03/04 02:25:34;;;;;;;26.02;12.98;;;-0.50;99.90;;;;;;5065551;28;20227;-37
2022/03/04 02:28:00;;;;;;;26.05;12.15;;;-0.50;99.90;;;;;;5047042;28;20052;-37
2022/03/04 02:30:26;;;;;;;27.90;13.65;;;-0.60;99.90;;;;;;5065296;28;20056;-37
2022/03/04 02:32:52;;;;;;;27.63;12.38;;;-0.60;99.90;;;;;;5078544;28;20466;-37
2022/03/04 02:35:18;;;;;;;30.83;13.07;;;-0.70;99.90;;;;;;5063948;28;20079;-37
2022/03/04 02:37:44;;;;;;;29.45;12.95;;;-0.70;99.90;;;;;;5077417;28;20041;-37
2022/03/04 02:40:11;;;;;;;27.52;13.57;;;-0.70;99.90;;;;;;5044673;28;20052;-37
2022/03/04 02:42:38;;;;;;;30.38;12.82;;;-0.70;99.90;;;;;;5063894;28;20127;-37
2022/03/04 02:45:04;;;;;;;32.13;16.90;;;-0.60;99.90;;;;;;5061904;28;20048;-37
2022/03/04 02:47:30;;;;;;;35.83;18.27;;;-0.60;99.90;;;;;;5047474;28;20474;-37
2022/03/04 02:49:55;;;;;;;35.47;19.70;;;-0.60;99.90;;;;;;5054042;28;20059;-37
2022/03/04 02:52:21;;;;;;;33.78;18.50;;;-0.60;99.90;;;;;;5068738;28;20037;-37
2022/03/04 02:54:47;;;;;;;31.75;15.50;;;-0.50;99.90;;;;;;5065876;28;20033;-37
2022/03/04 02:57:13;;;;;;;32.80;14.30;;;-0.50;99.90;;;;;;5069856;28;20036;-37
2022/03/04 02:59:39;;;;;;;34.60;15.07;;;-0.50;99.90;;;;;;5052252;28;20067;-37
2022/03/04 03:02:05;;;;;;;29.48;13.80;;;-0.50;99.90;;;;;;5068219;28;20475;-37
2022/03/04 03:04:31;;;;;;;31.00;13.68;;;-0.50;99.90;;;;;;5068266;28;20037;-37
2022/03/04 03:06:57;;;;;;;28.45;12.38;;;-0.60;99.90;;;;;;5068004;28;20044;-37
2022/03/04 03:09:23;;;;;;;26.23;12.98;;;-0.60;99.90;;;;;;5050708;28;20047;-37
2022/03/04 03:11:49;;;;;;;35.58;14.95;;;-0.70;99.90;;;;;;5062110;28;20055;-37
2022/03/04 03:14:15;;;;;;;29.13;13.93;;;-0.70;99.90;;;;;;5064268;28;20063;-37
2022/03/04 03:16:41;;;;;;;28.60;12.63;;;-0.80;99.90;;;;;;5067457;28;20043;-37
2022/03/04 03:19:08;;;;;;;30.23;13.35;;;-0.80;99.90;;;;;;5050413;28;20040;-37
2022/03/04 03:21:34;;;;;;;30.40;13.18;;;-0.80;99.90;;;;;;5065960;28;20051;-37
2022/03/04 03:24:00;;;;;;;25.13;13.10;;;-0.90;99.90;;;;;;5067260;28;20473;-37
2022/03/04 03:26:25;;;;;;;35.95;14.55;;;-0.90;99.90;;;;;;5061191;28;20127;-37
2022/03/04 03:28:52;;;;;;;33.00;13.95;;;-0.90;99.90;;;;;;5085275;28;20051;-37
2022/03/04 03:31:18;;;;;;;29.50;13.13;;;-0.90;99.90;;;;;;5076866;28;20060;-37
2022/03/04 03:33:44;;;;;;;28.20;12.93;;;-0.90;99.90;;;;;;5050031;28;20028;-37
2022/03/04 03:36:10;;;;;;;30.20;13.60;;;-1.00;99.90;;;;;;5045111;28;20037;-37
2022/03/04 03:38:36;;;;;;;29.80;13.35;;;-0.90;99.90;;;;;;5048543;28;20093;-37
2022/03/04 03:41:03;;;;;;;34.13;13.98;;;-1.00;99.90;;;;;;5079835;28;20048;-37
2022/03/04 03:43:30;;;;;;;35.60;16.17;;;-1.00;99.90;;;;;;5082938;28;20048;-37
2022/03/04 03:45:55;;;;;;;29.17;13.98;;;-1.00;99.90;;;;;;5034952;28;20044;-37
2022/03/04 03:48:21;;;;;;;29.40;14.63;;;-1.10;99.90;;;;;;5067303;28;20043;-37
2022/03/04 03:50:47;;;;;;;33.78;13.52;;;-1.10;99.90;;;;;;5067037;28;20474;-37
2022/03/04 03:53:13;;;;;;;32.47;14.07;;;-1.10;99.90;;;;;;5066344;28;20039;-37
2022/03/04 03:55:40;;;;;;;28.17;13.27;;;-1.10;99.90;;;;;;5067066;28;20441;-37
2022/03/04 03:58:06;;;;;;;32.88;14.48;;;-1.10;99.90;;;;;;5044522;28;20048;-38
2022/03/04 04:00:32;;;;;;;35.88;15.02;;;-1.20;99.90;;;;;;5067632;28;20036;-37
2022/03/04 04:02:58;;;;;;;38.72;14.77;;;-1.20;99.90;;;;;;5047426;28;20044;-37
2022/03/04 04:05:24;;;;;;;33.58;14.98;;;-1.20;99.90;;;;;;5060456;28;21120;-37
2022/03/04 04:07:51;;;;;;;33.38;15.85;;;-1.20;99.90;;;;;;5033621;28;20449;-37
2022/03/04 04:10:17;;;;;;;35.88;16.20;;;-1.20;99.90;;;;;;5042763;28;20037;-37
2022/03/04 04:12:43;;;;;;;39.88;16.17;;;-1.10;99.90;;;;;;5056905;28;20434;-37
2022/03/04 04:15:10;;;;;;;37.33;16.88;;;-1.10;99.90;;;;;;5062829;28;20040;-37
2022/03/04 04:17:36;;;;;;;38.75;16.40;;;-1.10;99.90;;;;;;5054222;28;20045;-37
2022/03/04 04:20:02;;;;;;;38.75;17.02;;;-1.00;99.90;;;;;;5065606;28;20029;-37
2022/03/04 04:22:28;;;;;;;40.15;16.58;;;-1.00;99.90;;;;;;5035900;28;20383;-37
2022/03/04 04:24:54;;;;;;;40.45;16.95;;;-1.00;99.90;;;;;;5061419;28;20174;-38
2022/03/04 04:27:20;;;;;;;41.13;16.13;;;-1.00;99.90;;;;;;5065215;28;20470;-38
2022/03/04 04:29:46;;;;;;;41.22;17.38;;;-1.00;99.90;;;;;;5067608;28;20050;-37
2022/03/04 04:32:12;;;;;;;40.95;16.92;;;-1.00;99.90;;;;;;5062744;28;20053;-37
2022/03/04 04:34:38;;;;;;;39.90;17.80;;;-1.00;99.90;;;;;;5064865;28;20120;-38
2022/03/04 04:37:04;;;;;;;39.72;16.88;;;-1.00;99.90;;;;;;5067499;28;20424;-37
2022/03/04 04:39:30;;;;;;;41.50;18.35;;;-1.10;99.90;;;;;;5071129;28;20087;-38
2022/03/04 04:41:55;;;;;;;38.28;17.00;;;-1.00;99.90;;;;;;5067931;28;20067;-37
2022/03/04 04:44:21;;;;;;;44.25;19.35;;;-1.00;99.90;;;;;;5053644;28;20042;-37
2022/03/04 04:46:47;;;;;;;40.65;17.98;;;-1.00;99.90;;;;;;5097978;28;20098;-38
2022/03/04 04:49:13;;;;;;;38.35;15.98;;;-1.00;99.90;;;;;;5101427;28;20059;-37
2022/03/04 04:51:40;;;;;;;41.53;18.70;;;-1.00;99.90;;;;;;5067944;28;20473;-38
2022/03/04 04:54:05;;;;;;;38.60;16.75;;;-1.00;99.90;;;;;;5069206;28;20050;-37
2022/03/04 04:56:31;;;;;;;45.50;18.05;;;-1.00;99.90;;;;;;5070939;28;20031;-37
2022/03/04 04:58:58;;;;;;;43.53;18.75;;;-1.00;99.90;;;;;;5068707;28;20046;-37
2022/03/04 05:01:24;;;;;;;42.80;18.30;;;-1.00;99.90;;;;;;5086239;28;20040;-37
2022/03/04 05:03:50;;;;;;;40.88;17.95;;;-1.00;99.90;;;;;;5079570;28;20477;-37
2022/03/04 05:06:17;;;;;;;47.25;18.15;;;-1.00;99.90;;;;;;5071003;28;20040;-37
2022/03/04 05:08:43;;;;;;;42.22;18.90;;;-1.00;99.90;;;;;;5087640;28;20040;-38
2022/03/04 05:11:09;;;;;;;45.63;18.73;;;-1.00;99.90;;;;;;5068065;28;20048;-37
2022/03/04 05:13:35;;;;;;;44.58;17.60;;;-1.00;99.90;;;;;;5083782;28;20079;-37
2022/03/04 05:16:01;;;;;;;38.90;17.80;;;-1.00;99.90;;;;;;5085282;28;20048;-38
2022/03/04 05:18:26;;;;;;;39.67;17.75;;;-1.00;99.90;;;;;;5081529;28;20079;-37
2022/03/04 05:20:53;;;;;;;39.15;17.77;;;-1.00;99.90;;;;;;5087051;28;20137;-38
2022/03/04 05:26:03;;;;;;;41.15;18.13;;;-0.90;99.90;;;;;;5068893;28;20408;-37
2022/03/04 05:28:29;;;;;;;41.58;16.77;;;-1.00;99.90;;;;;;5084460;28;20039;-38
2022/03/04 05:30:54;;;;;;;40.70;17.23;;;-1.00;99.90;;;;;;5086698;28;20097;-38
2022/03/04 05:33:20;;;;;;;40.25;17.25;;;-0.90;99.90;;;;;;5098865;28;20135;-37
2022/03/04 05:35:47;;;;;;;39.38;18.23;;;-0.90;99.90;;;;;;5066827;28;20489;-37
2022/03/04 05:38:13;;;;;;;39.70;17.13;;;-1.00;99.90;;;;;;5063329;28;20147;-37
2022/03/04 05:40:39;;;;;;;40.47;18.42;;;-1.00;99.90;;;;;;5086310;28;20059;-38
2022/03/04 05:43:05;;;;;;;36.67;16.77;;;-1.00;99.90;;;;;;5069226;28;20069;-38
2022/03/04 05:45:31;;;;;;;41.83;17.40;;;-1.00;99.90;;;;;;5068157;28;20492;-37
2022/03/04 05:47:58;;;;;;;36.80;16.45;;;-1.00;99.90;;;;;;5068238;28;20039;-37
2022/03/04 05:50:24;;;;;;;39.60;16.45;;;-1.00;99.90;;;;;;5084152;28;20550;-37
2022/03/04 05:52:49;;;;;;;34.95;16.42;;;-1.00;99.90;;;;;;5086769;28;20119;-37
2022/03/04 05:55:16;;;;;;;40.90;18.08;;;-1.00;99.90;;;;;;5065161;28;20046;-37
2022/03/04 05:57:42;;;;;;;35.75;16.48;;;-0.90;99.90;;;;;;5085540;28;20490;-37
2022/03/04 06:00:08;;;;;;;37.72;17.75;;;-0.90;99.90;;;;;;5063582;28;20041;-38
2022/03/04 06:02:34;;;;;;;36.65;16.40;;;-0.90;99.90;;;;;;5083432;28;20047;-38
2022/03/04 06:05:00;;;;;;;34.10;15.60;;;-0.90;99.90;;;;;;5066977;28;20048;-37
2022/03/04 06:07:28;;;;;;;31.65;15.45;;;-0.90;99.90;;;;;;5065889;28;20049;-38
2022/03/04 06:09:55;;;;;;;37.63;16.80;;;-0.90;99.90;;;;;;5082354;28;20123;-37
2022/03/04 06:12:20;;;;;;;34.50;15.50;;;-0.90;99.90;;;;;;5032332;28;20097;-38
2022/03/04 06:14:46;;;;;;;34.20;15.27;;;-1.00;99.90;;;;;;5067121;28;20413;-38
2022/03/04 06:17:13;;;;;;;36.67;16.02;;;-1.00;99.90;;;;;;5083113;28;20036;-38
2022/03/04 06:19:40;;;;;;;36.33;16.17;;;-0.90;99.90;;;;;;5068763;28;20044;-38
2022/03/04 06:22:05;;;;;;;33.42;15.20;;;-0.90;99.90;;;;;;5066689;28;20058;-38
2022/03/04 06:24:31;;;;;;;33.80;16.02;;;-0.90;99.90;;;;;;5070230;28;20115;-37
2022/03/04 06:26:57;;;;;;;36.22;17.05;;;-0.90;99.90;;;;;;5055972;28;20071;-38
2022/03/04 06:29:23;;;;;;;38.35;17.30;;;-0.90;99.90;;;;;;5071687;28;20131;-37
2022/03/04 06:31:49;;;;;;;36.35;15.57;;;-0.90;99.90;;;;;;5056016;28;20518;-37
2022/03/04 06:34:15;;;;;;;35.97;15.93;;;-0.90;99.90;;;;;;5068972;28;20138;-38
2022/03/04 06:36:41;;;;;;;33.42;15.27;;;-0.90;99.90;;;;;;5086592;28;20042;-38
2022/03/04 06:39:07;;;;;;;37.80;16.23;;;-0.90;99.90;;;;;;5073339;28;20058;-38
2022/03/04 06:41:32;;;;;;;32.45;15.40;;;-0.90;99.90;;;;;;5083441;28;20119;-38
2022/03/04 06:43:58;;;;;;;41.63;17.38;;;-0.90;99.90;;;;;;5022551;28;20036;-38
2022/03/04 06:46:24;;;;;;;39.90;17.88;;;-0.90;99.90;;;;;;5086917;28;21526;-37
2022/03/04 06:48:50;;;;;;;39.05;17.55;;;-0.80;99.90;;;;;;5078005;28;20842;-38
2022/03/04 06:51:16;;;;;;;43.75;16.58;;;-0.80;99.90;;;;;;5067818;28;20094;-38
2022/03/04 06:53:42;;;;;;;40.17;17.65;;;-0.90;99.90;;;;;;5061908;28;20527;-38
2022/03/04 06:56:08;;;;;;;37.90;17.00;;;-0.90;99.90;;;;;;5037265;28;20044;-38
2022/03/04 06:58:34;;;;;;;39.60;17.23;;;-0.80;99.90;;;;;;5052413;28;20103;-38
2022/03/04 07:01:00;;;;;;;37.72;18.52;;;-0.80;99.90;;;;;;5075157;28;20118;-38
2022/03/04 07:03:26;;;;;;;44.10;19.15;;;-0.90;99.90;;;;;;5087530;28;20039;-38
2022/03/04 07:05:52;;;;;;;40.30;17.92;;;-0.80;99.90;;;;;;5090612;28;20040;-38
2022/03/04 07:08:18;;;;;;;40.45;18.00;;;-0.80;99.90;;;;;;5086639;28;20071;-38
2022/03/04 07:10:44;;;;;;;44.47;19.60;;;-0.80;99.90;;;;;;5054760;28;20068;-38
2022/03/04 07:13:11;;;;;;;41.38;18.85;;;-0.80;99.90;;;;;;5070254;28;20044;-38
2022/03/04 07:15:38;;;;;;;44.60;18.88;;;-0.80;99.90;;;;;;5088864;28;20052;-39
2022/03/04 07:18:04;;;;;;;43.30;19.20;;;-0.80;99.90;;;;;;5073254;28;20362;-38
2022/03/04 07:20:30;;;;;;;42.22;18.88;;;-0.80;99.90;;;;;;5067831;28;20141;-38
2022/03/04 07:22:56;;;;;;;43.38;19.33;;;-0.70;99.90;;;;;;5102901;28;20459;-38
2022/03/04 07:25:22;;;;;;;42.08;18.52;;;-0.70;99.90;;;;;;5089422;28;20115;-38
2022/03/04 07:27:48;;;;;;;45.50;18.58;;;-0.70;99.90;;;;;;5090953;28;20474;-38
2022/03/04 07:30:17;;;;;;;40.22;18.25;;;-0.70;99.90;;;;;;5084535;28;20410;-38
2022/03/04 07:32:43;;;;;;;44.47;19.08;;;-0.70;99.90;;;;;;5072694;28;20047;-38
2022/03/04 07:35:11;;;;;;;42.03;18.30;;;-0.70;99.90;;;;;;5076366;28;20136;-38
2022/03/04 07:37:38;;;;;;;36.72;16.77;;;-0.70;99.90;;;;;;5090509;28;20076;-37
2022/03/04 07:40:06;;;;;;;32.92;16.25;;;-0.60;99.90;;;;;;5067129;28;20055;-38
2022/03/04 07:42:33;;;;;;;30.48;15.32;;;-0.60;99.90;;;;;;5071186;28;20089;-38
2022/03/04 07:44:59;;;;;;;33.08;15.57;;;-0.50;99.90;;;;;;5085845;28;20079;-38
2022/03/04 07:47:25;;;;;;;34.50;15.32;;;-0.50;99.90;;;;;;5070449;28;20051;-38
2022/03/04 07:49:51;;;;;;;28.98;13.77;;;-0.40;99.90;;;;;;5085000;28;20044;-37
2022/03/04 07:52:17;;;;;;;30.52;14.30;;;-0.30;99.90;;;;;;5036303;28;20129;-38
2022/03/04 07:54:44;;;;;;;31.77;14.88;;;-0.30;99.90;;;;;;5100387;28;20044;-38
2022/03/04 07:57:09;;;;;;;27.98;14.18;;;-0.30;99.90;;;;;;5089250;28;20040;-37
2022/03/04 07:59:35;;;;;;;27.67;14.93;;;-0.20;99.90;;;;;;5069883;28;20137;-38
2022/03/04 08:02:01;;;;;;;31.42;14.68;;;-0.20;99.90;;;;;;5087357;28;20027;-38
2022/03/04 08:04:27;;;;;;;25.45;13.68;;;-0.10;99.90;;;;;;5071117;28;20040;-38
2022/03/04 08:06:53;;;;;;;27.58;13.80;;;-0.10;99.90;;;;;;5086720;28;20075;-38
2022/03/04 08:09:20;;;;;;;26.25;14.05;;;0.00;99.90;;;;;;5072021;28;20052;-38
2022/03/04 08:11:47;;;;;;;27.83;13.48;;;0.10;99.90;;;;;;5088015;28;20075;-38
2022/03/04 08:14:13;;;;;;;24.85;13.27;;;0.20;99.90;;;;;;5069505;28;20486;-38
2022/03/04 08:16:39;;;;;;;31.55;14.45;;;0.20;99.90;;;;;;5072067;28;20039;-38
2022/03/04 08:19:06;;;;;;;28.02;14.15;;;0.20;99.90;;;;;;5075768;28;20125;-38
2022/03/04 08:21:32;;;;;;;26.13;14.77;;;0.10;99.90;;;;;;5069155;28;20630;-38
2022/03/04 08:23:59;;;;;;;30.52;14.70;;;0.10;99.90;;;;;;5076734;28;20044;-38
2022/03/04 08:26:25;;;;;;;28.20;15.48;;;0.10;99.90;;;;;;5071562;28;20076;-38
2022/03/04 08:28:51;;;;;;;30.52;14.40;;;0.10;99.90;;;;;;5084741;28;20087;-38
2022/03/04 08:31:17;;;;;;;29.10;13.95;;;0.20;99.90;;;;;;5086188;28;20036;-38
2022/03/04 08:33:44;;;;;;;24.02;13.00;;;0.30;99.90;;;;;;5072099;28;20500;-38
2022/03/04 08:36:11;;;;;;;25.83;13.50;;;0.40;99.90;;;;;;5088076;28;20059;-38
2022/03/04 08:38:37;;;;;;;27.83;13.75;;;0.50;99.90;;;;;;5098991;27;20044;-38
2022/03/04 08:41:04;;;;;;;24.15;12.35;;;0.60;99.90;;;;;;5084188;28;20087;-38
2022/03/04 08:43:34;;;;;;;22.45;12.40;;;0.70;99.90;;;;;;5064688;28;20035;-38
2022/03/04 08:46:01;;;;;;;21.33;11.38;;;0.80;99.90;;;;;;5067421;28;20497;-39
2022/03/04 08:48:27;;;;;;;22.58;12.70;;;0.90;99.90;;;;;;5068287;28;20060;-38
2022/03/04 08:50:53;;;;;;;24.20;12.75;;;1.00;99.90;;;;;;5074082;28;20025;-38
2022/03/04 08:53:19;;;;;;;25.30;12.55;;;1.00;99.90;;;;;;5067046;28;20123;-39
2022/03/04 08:55:46;;;;;;;25.05;13.25;;;1.10;99.90;;;;;;5063513;28;20119;-38
2022/03/04 08:58:13;;;;;;;24.23;12.27;;;1.10;99.90;;;;;;5067196;28;20044;-38
2022/03/04 09:00:39;;;;;;;21.35;12.48;;;1.10;99.90;;;;;;5063966;28;20056;-38
2022/03/04 09:03:05;;;;;;;22.90;12.63;;;1.10;99.90;;;;;;5067154;28;20033;-39
2022/03/04 09:05:32;;;;;;;23.20;11.77;;;1.10;99.90;;;;;;5060187;28;20117;-39
2022/03/04 09:07:58;;;;;;;21.77;12.48;;;1.10;99.90;;;;;;5068139;28;20076;-38
2022/03/04 09:10:24;;;;;;;24.10;12.02;;;1.20;99.90;;;;;;5063808;28;20079;-39
2022/03/04 09:12:50;;;;;;;20.05;11.82;;;1.20;99.90;;;;;;5066754;28;20048;-38
2022/03/04 09:15:16;;;;;;;21.10;11.93;;;1.20;99.90;;;;;;5064877;28;20032;-38
2022/03/04 09:17:42;;;;;;;23.02;12.32;;;1.30;99.90;;;;;;5049835;28;20048;-38
2022/03/04 09:20:09;;;;;;;23.00;13.68;;;1.40;99.90;;;;;;5067176;28;20036;-39
2022/03/04 09:22:36;;;;;;;21.02;11.73;;;1.60;99.90;;;;;;5066642;28;20051;-38
2022/03/04 09:25:03;;;;;;;19.58;11.43;;;1.90;99.90;;;;;;5064756;28;20143;-38
2022/03/04 09:27:29;;;;;;;21.23;11.93;;;2.00;99.90;;;;;;5029860;28;20048;-39
2022/03/04 09:29:56;;;;;;;22.42;12.55;;;1.90;99.90;;;;;;5065717;28;20040;-38
2022/03/04 09:32:23;;;;;;;19.63;12.10;;;1.90;99.90;;;;;;5063991;28;20520;-38
2022/03/04 09:34:55;;;;;;;22.70;11.77;;;1.90;99.90;;;;;;5065636;28;20514;-39
2022/03/04 09:37:22;;;;;;;20.42;11.32;;;2.10;99.90;;;;;;5065943;28;20028;-39
2022/03/04 09:39:48;;;;;;;22.75;12.50;;;2.30;99.90;;;;;;5073536;28;20048;-39
2022/03/04 09:42:15;;;;;;;21.85;12.27;;;2.50;99.90;;;;;;5084506;28;20043;-39
2022/03/04 09:44:42;;;;;;;22.20;12.13;;;2.70;99.90;;;;;;5070051;28;20094;-39
2022/03/04 09:47:10;;;;;;;20.40;11.30;;;2.90;99.90;;;;;;5101692;27;20039;-40
2022/03/04 09:49:37;;;;;;;21.45;12.10;;;3.00;99.90;;;;;;5087408;28;20048;-39
2022/03/04 09:52:05;;;;;;;19.88;11.65;;;3.30;99.90;;;;;;5066681;28;20087;-39
2022/03/04 09:54:32;;;;;;;18.88;11.75;;;3.50;99.90;;;;;;5087196;28;20056;-39
2022/03/04 09:56:59;;;;;;;22.05;12.40;;;3.40;99.90;;;;;;5081887;28;20044;-39
2022/03/04 09:59:25;;;;;;;18.60;12.00;;;3.50;99.90;;;;;;5072984;28;20105;-39
2022/03/04 10:01:51;;;;;;;19.70;12.13;;;3.60;99.90;;;;;;5092646;28;20032;-39
2022/03/04 10:04:17;;;;;;;21.73;11.82;;;3.80;99.90;;;;;;5073327;28;20110;-40
2022/03/04 10:06:50;;;;;;;20.25;12.07;;;3.90;99.90;;;;;;5059543;28;20027;-40
2022/03/04 10:09:39;;;;;;;20.77;11.65;;;4.00;99.90;;;;;;5107372;27;20044;-40
2022/03/04 10:12:07;;;;;;;20.02;11.05;;;3.90;99.90;;;;;;5095559;28;20083;-40
2022/03/04 10:14:33;;;;;;;19.23;11.48;;;4.00;99.90;;;;;;5073311;28;20050;-40
2022/03/04 10:16:59;;;;;;;18.35;11.38;;;4.00;99.90;;;;;;5075794;28;20040;-40
2022/03/04 10:19:28;;;;;;;20.27;12.15;;;4.10;99.90;;;;;;5092029;28;20501;-40
2022/03/04 10:21:59;;;;;;;19.17;11.50;;;4.30;99.90;;;;;;5076043;28;20046;-40
2022/03/04 10:24:32;;;;;;;19.13;11.48;;;4.40;99.90;;;;;;5107355;28;20036;-40
2022/03/04 10:27:02;;;;;;;17.90;11.00;;;4.50;99.90;;;;;;5091438;28;20501;-40
2022/03/04 10:29:31;;;;;;;19.27;12.20;;;4.70;99.90;;;;;;5092109;28;20377;-40
2022/03/04 10:32:13;;;;;;;20.67;11.70;;;4.80;99.90;;;;;;5074675;28;20419;-41
2022/03/04 10:34:54;;;;;;;17.83;10.68;;;4.80;99.90;;;;;;5092995;28;20047;-42
2022/03/04 10:37:42;;;;;;;19.45;11.82;;;4.90;99.90;;;;;;5075024;28;20031;-40
2022/03/04 10:40:17;;;;;;;16.05;10.57;;;5.00;99.90;;;;;;5072096;28;20506;-40
2022/03/04 10:43:04;;;;;;;18.30;10.95;;;5.00;99.90;;;;;;5071225;28;20055;-40
2022/03/04 10:45:32;;;;;;;15.63;9.80;;;5.10;99.90;;;;;;5069598;28;20123;-41
2022/03/04 10:48:07;;;;;;;19.38;10.40;;;5.30;99.90;;;;;;5071863;28;20612;-40
2022/03/04 10:50:35;;;;;;;15.43;9.45;;;5.40;99.90;;;;;;5069477;28;20040;-41
2022/03/04 10:53:11;;;;;;;18.33;10.90;;;5.50;99.90;;;;;;5072342;28;20706;-40
2022/03/04 10:55:42;;;;;;;14.95;10.15;;;5.50;99.90;;;;;;5066125;28;20122;-40
2022/03/04 10:58:23;;;;;;;16.05;10.60;;;5.60;99.90;;;;;;5071514;28;20048;-41
2022/03/04 11:00:54;;;;;;;16.23;9.48;;;5.70;99.90;;;;;;5068121;28;20535;-41
2022/03/04 11:03:25;;;;;;;17.48;10.50;;;5.80;99.90;;;;;;5070333;28;20040;-41
2022/03/04 11:05:54;;;;;;;14.73;9.77;;;5.80;99.90;;;;;;5073760;28;20147;-41
2022/03/04 11:08:23;;;;;;;15.75;9.70;;;6.00;99.90;;;;;;5071271;28;20075;-41
2022/03/04 11:10:51;;;;;;;15.13;9.57;;;6.00;99.90;;;;;;5068036;28;20097;-42
2022/03/04 11:13:17;;;;;;;15.98;9.60;;;6.20;99.90;;;;;;5067885;28;20397;-41
2022/03/04 11:15:45;;;;;;;14.57;9.20;;;6.10;99.90;;;;;;5051502;28;20097;-40
2022/03/04 11:18:14;;;;;;;18.08;10.38;;;6.20;99.90;;;;;;5067416;28;21074;-42
2022/03/04 11:20:42;;;;;;;15.52;9.55;;;6.20;99.90;;;;;;5070396;28;20051;-41
2022/03/04 11:23:10;;;;;;;17.35;10.63;;;6.30;99.90;;;;;;5067363;28;20123;-42
2022/03/04 11:25:38;;;;;;;16.88;9.98;;;6.40;99.90;;;;;;5052916;28;20048;-41
2022/03/04 11:28:14;;;;;;;15.95;9.38;;;6.50;99.90;;;;;;5065261;28;20119;-41
2022/03/04 11:30:49;;;;;;;20.38;10.80;;;6.50;99.90;;;;;;5044763;28;20109;-42
2022/03/04 11:33:20;;;;;;;16.25;9.68;;;6.60;99.90;;;;;;5100055;28;20430;-41
2022/03/04 11:35:56;;;;;;;18.13;11.27;;;6.70;99.90;;;;;;5050601;28;20052;-41
2022/03/04 11:38:46;;;;;;;16.73;10.52;;;6.70;99.90;;;;;;5075275;28;20109;-41
2022/03/04 11:41:26;;;;;;;17.30;10.35;;;6.70;99.90;;;;;;5080571;28;20048;-42
2022/03/04 11:43:54;;;;;;;16.40;9.98;;;6.80;99.90;;;;;;5088922;28;20347;-41
2022/03/04 11:46:25;;;;;;;15.95;9.27;;;7.10;99.90;;;;;;5070433;28;20040;-41
2022/03/04 11:49:24;;;;;;;16.80;9.90;;;6.90;99.90;;;;;;5082586;28;20047;-41
2022/03/04 11:52:11;;;;;;;18.73;11.15;;;7.00;99.90;;;;;;5072579;28;20139;-42
2022/03/04 11:54:58;;;;;;;17.33;11.43;;;7.00;99.90;;;;;;5078718;28;20169;-42
2022/03/04 11:57:39;;;;;;;19.63;12.27;;;7.00;99.90;;;;;;5077827;28;20047;-42
2022/03/04 12:00:14;;;;;;;19.20;11.07;;;6.90;99.90;;;;;;5085943;28;20039;-42
2022/03/04 12:02:44;;;;;;;17.02;11.05;;;7.00;99.90;;;;;;5070554;28;20397;-42
2022/03/04 12:05:21;;;;;;;19.17;11.38;;;7.00;99.90;;;;;;5089003;28;20094;-41
2022/03/04 12:08:10;;;;;;;20.02;11.82;;;7.10;99.90;;;;;;5086892;28;20028;-41
2022/03/04 12:10:39;;;;;;;;;;;7.10;99.90;;;;;;5081716;28;20044;-42
2022/03/04 12:13:14;;;;;;;19.73;11.40;;;7.20;99.90;;;;;;5088916;28;19916;-43
2022/03/04 12:16:04;;;;;;;18.88;11.80;;;7.20;99.90;;;;;;5070515;28;20052;-42
2022/03/04 12:18:38;;;;;;;20.05;11.90;;;7.30;99.90;;;;;;5086002;28;20374;-42
2022/03/04 12:21:13;;;;;;;19.35;12.38;;;7.30;99.90;;;;;;5069956;28;20037;-41
2022/03/04 12:23:42;;;;;;;23.25;12.63;;;7.40;99.90;;;;;;5089638;28;20536;-40
2022/03/04 12:26:25;;;;;;;19.50;12.65;;;7.40;99.90;;;;;;5086168;28;20039;-42
2022/03/04 12:29:06;;;;;;;19.70;12.30;;;7.50;99.90;;;;;;5052187;28;20056;-41
2022/03/04 12:31:39;;;;;;;20.85;12.68;;;7.60;99.90;;;;;;5083077;28;20077;-41
2022/03/04 12:34:18;;;;;;;20.60;12.13;;;7.70;99.90;;;;;;5090162;28;20040;-42
2022/03/04 12:36:46;;;;;;;22.40;12.52;;;7.60;99.90;;;;;;5087060;28;20101;-41
2022/03/04 12:39:15;;;;;;;18.80;11.07;;;7.70;99.90;;;;;;5068381;28;20049;-43